Time;durP1;ratioP1;P1;durP2;ratioP2;P2;SDS_P1;SDS_P2;PMS_P1;PMS_P2;Temp;Humidity;BMP_temperature;BMP_pressure;BME280_temperature;BME280_humidity;BME280_pressure;Samples;Min_cycle;Max_cycle;Signal;HPM_P1;HPM_P2
2022/04/29 00:00:42;;;;;;;9.63;4.30;;;10.60;58.10;;;;;;2347466;57;21044;-73
2022/04/29 00:03:11;;;;;;;9.80;4.15;;;10.60;58.10;;;;;;2347400;57;21045;-75
2022/04/29 00:05:40;;;;;;;11.77;4.22;;;10.60;58.10;;;;;;2347147;57;21030;-75
2022/04/29 00:08:09;;;;;;;7.85;4.47;;;10.60;58.10;;;;;;2346188;57;21097;-74
2022/04/29 00:10:37;;;;;;;11.48;4.20;;;10.50;58.10;;;;;;2347438;57;21074;-74
2022/04/29 00:13:06;;;;;;;8.50;4.03;;;10.50;58.20;;;;;;2347359;57;21025;-75
2022/04/29 00:15:34;;;;;;;10.25;4.07;;;10.40;58.50;;;;;;2346924;57;21604;-74
2022/04/29 00:18:01;;;;;;;5.82;4.05;;;10.40;58.70;;;;;;2347257;57;21101;-75
2022/04/29 00:20:29;;;;;;;13.00;4.28;;;10.40;58.70;;;;;;2347424;57;21037;-75
2022/04/29 00:22:56;;;;;;;12.15;4.45;;;10.30;58.60;;;;;;2347719;57;21113;-74
2022/04/29 00:25:23;;;;;;;7.43;4.07;;;10.30;58.50;;;;;;2346184;57;21034;-75
2022/04/29 00:27:51;;;;;;;8.95;4.43;;;10.30;58.10;;;;;;2594365;52;21053;-74
2022/04/29 00:30:18;;;;;;;8.73;4.10;;;10.30;58.40;;;;;;2593659;53;21354;-74
2022/04/29 00:32:45;;;;;;;6.43;4.03;;;10.20;58.60;;;;;;2346606;57;21520;-75
2022/04/29 00:35:13;;;;;;;13.00;4.57;;;10.20;58.60;;;;;;2594052;53;21125;-74
2022/04/29 00:37:45;;;;;;;10.20;4.40;;;10.10;58.60;;;;;;2346297;57;21037;-74
2022/04/29 00:40:16;;;;;;;11.55;4.85;;;10.10;58.90;;;;;;2345687;57;21105;-75
2022/04/29 00:42:45;;;;;;;8.88;4.62;;;10.10;59.10;;;;;;2346241;57;21030;-75
2022/04/29 00:45:13;;;;;;;13.98;5.25;;;10.00;60.10;;;;;;2346700;57;21054;-74
2022/04/29 00:47:40;;;;;;;12.25;4.53;;;10.00;60.00;;;;;;2346521;57;21050;-74
2022/04/29 00:50:10;;;;;;;12.05;5.28;;;9.90;60.70;;;;;;2346485;57;21137;-74
2022/04/29 00:52:42;;;;;;;12.55;5.18;;;9.90;61.10;;;;;;2346955;57;21022;-75
2022/04/29 00:55:11;;;;;;;14.07;6.00;;;9.90;61.60;;;;;;2346414;57;21101;-74
2022/04/29 00:57:44;;;;;;;9.57;5.12;;;9.90;61.60;;;;;;2593418;52;21109;-74
2022/04/29 01:00:14;;;;;;;17.23;5.30;;;9.90;61.70;;;;;;2345896;57;21188;-73
2022/04/29 01:02:43;;;;;;;14.13;6.15;;;9.90;61.60;;;;;;2346617;57;21085;-75
2022/04/29 01:05:12;;;;;;;10.13;4.68;;;9.90;61.50;;;;;;2594052;53;21560;-74
2022/04/29 01:07:41;;;;;;;8.10;4.57;;;9.80;61.70;;;;;;2346572;57;21049;-75
2022/04/29 01:10:12;;;;;;;12.23;4.60;;;9.80;61.90;;;;;;2346623;57;21181;-73
2022/04/29 01:12:43;;;;;;;14.60;5.65;;;9.80;62.00;;;;;;2594101;53;21089;-74
2022/04/29 01:17:50;;;;;;;9.18;4.70;;;9.80;61.40;;;;;;2304887;58;22118;-74
2022/04/29 01:20:19;;;;;;;9.50;5.25;;;9.80;61.20;;;;;;2319356;58;21080;-76
2022/04/29 01:22:46;;;;;;;16.48;4.80;;;9.80;61.10;;;;;;2560687;54;21048;-76
2022/04/29 01:25:14;;;;;;;13.88;5.82;;;9.80;61.20;;;;;;2319339;58;21048;-76
2022/04/29 01:27:42;;;;;;;7.93;5.12;;;9.80;61.50;;;;;;2560248;53;21064;-76
2022/04/29 01:30:11;;;;;;;9.93;5.25;;;9.70;61.70;;;;;;2318446;58;21084;-76
2022/04/29 01:32:40;;;;;;;9.85;4.87;;;9.70;61.90;;;;;;2318708;58;21044;-76
2022/04/29 01:35:10;;;;;;;13.65;6.30;;;9.70;62.20;;;;;;2319055;58;21068;-76
2022/04/29 01:37:38;;;;;;;10.50;5.40;;;9.70;62.00;;;;;;2319005;58;21183;-76
2022/04/29 01:40:07;;;;;;;13.25;6.00;;;9.70;61.90;;;;;;2319399;58;21045;-76
2022/04/29 01:42:35;;;;;;;19.58;6.30;;;9.60;62.20;;;;;;2319550;58;21043;-76
2022/04/29 01:45:03;;;;;;;12.15;6.50;;;9.60;62.10;;;;;;2317971;58;21053;-76
2022/04/29 01:47:30;;;;;;;15.32;6.60;;;9.60;62.10;;;;;;2318878;58;21068;-76
2022/04/29 01:49:58;;;;;;;12.27;6.20;;;9.60;62.40;;;;;;2559303;54;21139;-75
2022/04/29 01:52:25;;;;;;;11.43;5.72;;;9.60;62.80;;;;;;2560382;54;21980;-76
2022/04/29 01:54:53;;;;;;;13.00;6.57;;;9.50;62.80;;;;;;2319259;58;21614;-76
2022/04/29 01:57:20;;;;;;;16.80;6.70;;;9.50;62.60;;;;;;2319109;58;21061;-75
2022/04/29 01:59:47;;;;;;;10.68;5.72;;;9.50;62.80;;;;;;2559579;54;21105;-75
2022/04/29 02:02:16;;;;;;;15.07;7.10;;;9.50;63.00;;;;;;2318465;58;21060;-75
2022/04/29 02:04:44;;;;;;;22.98;6.93;;;9.40;63.10;;;;;;2319151;58;21981;-75
2022/04/29 02:07:12;;;;;;;13.73;5.65;;;9.40;63.30;;;;;;2318178;58;21068;-75
2022/04/29 02:09:39;;;;;;;12.23;6.53;;;9.40;63.60;;;;;;2318377;58;21041;-74
2022/04/29 02:12:09;;;;;;;17.83;7.03;;;9.40;63.60;;;;;;2318891;58;21049;-75
2022/04/29 02:14:39;;;;;;;18.27;6.37;;;9.40;63.40;;;;;;2318975;58;21614;-73
2022/04/29 02:17:08;;;;;;;12.27;6.20;;;9.40;63.00;;;;;;2307705;58;21049;-75
2022/04/29 02:19:36;;;;;;;16.08;7.30;;;9.40;62.80;;;;;;2538180;54;21100;-74
2022/04/29 02:22:06;;;;;;;14.73;6.65;;;9.40;63.00;;;;;;2300466;58;21417;-75
2022/04/29 02:24:33;;;;;;;20.10;6.87;;;9.40;63.50;;;;;;2300970;58;21583;-74
2022/04/29 02:27:02;;;;;;;13.70;6.50;;;9.40;63.70;;;;;;2300420;58;21200;-75
2022/04/29 02:29:29;;;;;;;17.58;6.95;;;9.40;64.00;;;;;;2537457;54;21093;-75
2022/04/29 02:31:57;;;;;;;17.30;8.55;;;9.30;64.40;;;;;;2299128;58;21175;-74
2022/04/29 02:34:25;;;;;;;14.00;7.62;;;9.30;64.80;;;;;;2300389;58;21120;-74
2022/04/29 02:36:53;;;;;;;17.42;8.10;;;9.30;64.90;;;;;;2299491;58;21140;-74
2022/04/29 02:39:21;;;;;;;16.45;7.20;;;9.30;64.70;;;;;;2298779;58;21679;-74
2022/04/29 02:41:48;;;;;;;19.08;6.97;;;9.30;64.40;;;;;;2299905;58;21045;-75
2022/04/29 02:44:16;;;;;;;12.63;6.12;;;9.30;64.30;;;;;;2299728;58;21131;-74
2022/04/29 02:49:30;;;;;;;13.45;7.28;;;9.30;64.50;;;;;;2536274;54;21037;-74
2022/04/29 02:51:57;;;;;;;13.95;7.22;;;9.30;64.60;;;;;;2298164;58;21056;-75
2022/04/29 02:54:25;;;;;;;19.83;7.85;;;9.30;64.80;;;;;;2537050;54;21014;-73
2022/04/29 02:56:52;;;;;;;16.35;7.32;;;9.30;64.70;;;;;;2298121;58;21129;-75
2022/04/29 02:59:21;;;;;;;15.82;7.50;;;9.30;64.80;;;;;;2299906;58;21191;-74
2022/04/29 03:01:48;;;;;;;16.15;7.75;;;9.30;64.50;;;;;;2299456;58;21069;-74
2022/04/29 03:04:16;;;;;;;13.98;6.75;;;9.30;64.40;;;;;;2299674;58;21145;-74
2022/04/29 03:06:44;;;;;;;15.98;7.30;;;9.30;64.50;;;;;;2299157;58;21044;-75
2022/04/29 03:09:11;;;;;;;17.17;8.15;;;9.30;64.40;;;;;;2299583;58;21053;-74
2022/04/29 03:11:39;;;;;;;14.10;6.80;;;9.30;64.40;;;;;;2300299;58;21049;-73
2022/04/29 03:14:06;;;;;;;20.12;9.05;;;9.20;64.60;;;;;;2299703;58;21049;-74
2022/04/29 03:16:34;;;;;;;19.15;8.80;;;9.20;65.00;;;;;;2299365;58;21171;-74
2022/04/29 03:19:02;;;;;;;20.52;8.40;;;9.20;65.40;;;;;;2537478;54;21116;-74
2022/04/29 03:21:29;;;;;;;14.40;7.50;;;9.20;65.50;;;;;;2537244;54;21064;-73
2022/04/29 03:23:57;;;;;;;14.95;7.82;;;9.20;65.60;;;;;;2299899;58;21053;-73
2022/04/29 03:26:24;;;;;;;17.85;7.75;;;9.20;65.50;;;;;;2299930;58;21041;-75
2022/04/29 03:28:51;;;;;;;19.85;8.40;;;9.20;65.50;;;;;;2537266;54;21603;-74
2022/04/29 03:31:19;;;;;;;13.98;7.80;;;9.20;65.40;;;;;;2299891;58;21033;-74
2022/04/29 03:33:46;;;;;;;16.58;9.00;;;9.20;65.60;;;;;;2299802;58;21129;-74
2022/04/29 03:36:14;;;;;;;17.55;8.15;;;9.10;65.90;;;;;;2300035;58;21060;-74
2022/04/29 03:38:41;;;;;;;18.08;7.93;;;9.10;65.90;;;;;;2300135;58;21041;-74
2022/04/29 03:41:09;;;;;;;18.30;7.20;;;9.10;66.20;;;;;;2299453;58;21132;-74
2022/04/29 03:43:36;;;;;;;14.70;7.03;;;9.10;66.40;;;;;;2537386;54;22315;-75
2022/04/29 03:46:05;;;;;;;16.60;8.65;;;9.10;66.40;;;;;;2299975;58;21085;-75
2022/04/29 03:49:35;;;;;;;31.45;8.98;;;9.10;66.30;;;;;;2299820;58;21116;-75
2022/04/29 03:52:03;;;;;;;16.98;8.20;;;9.10;66.30;;;;;;2300094;58;21136;-74
2022/04/29 03:54:30;;;;;;;15.18;7.45;;;9.10;66.10;;;;;;2300553;58;21534;-74
2022/04/29 03:56:58;;;;;;;19.08;8.32;;;9.10;66.20;;;;;;2299820;58;21061;-75
2022/04/29 03:59:25;;;;;;;20.90;8.93;;;9.10;66.30;;;;;;2298029;58;21061;-74
2022/04/29 04:01:52;;;;;;;19.92;9.13;;;9.10;66.30;;;;;;2536701;54;21064;-74
2022/04/29 04:04:20;;;;;;;17.52;8.25;;;9.10;66.10;;;;;;2299532;58;21116;-74
2022/04/29 04:06:50;;;;;;;17.25;7.97;;;9.10;66.30;;;;;;2299699;58;21045;-75
2022/04/29 04:09:18;;;;;;;23.50;8.95;;;9.10;66.50;;;;;;2300092;58;21085;-75
2022/04/29 04:11:45;;;;;;;16.75;8.52;;;9.10;66.30;;;;;;2300016;58;21041;-74
2022/04/29 04:14:12;;;;;;;15.20;8.55;;;9.20;66.40;;;;;;2299248;58;21108;-74
2022/04/29 04:16:40;;;;;;;16.92;8.13;;;9.10;66.50;;;;;;2298853;58;21081;-75
2022/04/29 04:19:07;;;;;;;16.25;8.80;;;9.10;66.80;;;;;;2299284;58;21161;-75
2022/04/29 04:21:34;;;;;;;17.65;8.90;;;9.10;66.80;;;;;;2298695;58;22237;-74
2022/04/29 04:24:01;;;;;;;14.23;8.40;;;9.10;67.10;;;;;;2300001;58;21044;-74
2022/04/29 04:26:29;;;;;;;15.15;8.68;;;9.10;67.00;;;;;;2299588;58;21160;-73
2022/04/29 04:28:56;;;;;;;25.52;9.30;;;9.10;66.80;;;;;;2537104;54;21057;-74
2022/04/29 04:31:24;;;;;;;24.23;9.68;;;9.20;66.80;;;;;;2300170;58;21105;-75
2022/04/29 04:33:51;;;;;;;16.87;8.63;;;9.10;66.80;;;;;;2300110;58;21057;-74
2022/04/29 04:36:19;;;;;;;17.95;8.98;;;9.20;67.00;;;;;;2385318;52;21583;-72
2022/04/29 04:38:47;;;;;;;15.93;8.77;;;9.20;67.20;;;;;;2329246;57;21042;-72
2022/04/29 04:41:16;;;;;;;21.65;10.23;;;9.20;67.20;;;;;;2330055;57;21650;-73
2022/04/29 04:43:43;;;;;;;22.40;10.23;;;9.20;67.40;;;;;;2329962;57;21038;-72
2022/04/29 04:46:12;;;;;;;21.65;10.40;;;9.20;67.40;;;;;;2329038;57;21042;-72
2022/04/29 04:48:39;;;;;;;20.15;8.73;;;9.20;67.40;;;;;;2572121;53;21037;-74
2022/04/29 04:51:07;;;;;;;15.13;8.65;;;9.20;68.50;;;;;;2329382;57;21145;-72
2022/04/29 04:53:34;;;;;;;19.20;9.18;;;9.20;67.40;;;;;;2328931;57;21101;-74
2022/04/29 04:56:01;;;;;;;20.58;10.75;;;9.20;67.30;;;;;;2328627;57;21134;-73
2022/04/29 04:58:32;;;;;;;18.30;9.30;;;9.30;67.10;;;;;;2328296;57;21058;-74
2022/04/29 05:00:59;;;;;;;24.55;11.25;;;9.30;67.00;;;;;;2329376;57;21627;-73
2022/04/29 05:03:27;;;;;;;20.30;10.68;;;9.30;67.10;;;;;;2328520;57;22114;-74
2022/04/29 05:05:54;;;;;;;23.40;10.35;;;9.30;67.10;;;;;;2327986;57;21208;-74
2022/04/29 05:08:21;;;;;;;24.37;10.52;;;9.30;67.40;;;;;;2329041;57;21152;-74
2022/04/29 05:10:49;;;;;;;19.15;9.48;;;9.20;67.60;;;;;;2573267;54;21106;-72
2022/04/29 05:13:16;;;;;;;21.65;11.52;;;9.20;67.80;;;;;;2329469;57;21050;-74
2022/04/29 05:15:43;;;;;;;27.95;9.98;;;9.20;67.70;;;;;;2329468;57;21615;-74
2022/04/29 05:18:15;;;;;;;19.77;9.70;;;9.20;67.60;;;;;;2329171;57;21204;-76
2022/04/29 05:20:42;;;;;;;19.87;10.10;;;9.20;67.80;;;;;;2327938;57;21064;-75
2022/04/29 05:23:09;;;;;;;18.77;9.02;;;9.20;67.90;;;;;;2327932;57;21576;-75
2022/04/29 05:25:37;;;;;;;26.30;9.85;;;9.20;67.90;;;;;;2328167;57;21069;-76
2022/04/29 05:28:04;;;;;;;21.08;9.90;;;9.20;67.80;;;;;;2328565;57;21042;-75
2022/04/29 05:30:32;;;;;;;19.25;9.45;;;9.20;68.10;;;;;;2327681;57;21046;-75
2022/04/29 05:33:00;;;;;;;22.35;10.60;;;9.20;68.10;;;;;;2328078;57;21066;-76
2022/04/29 05:35:28;;;;;;;19.45;9.98;;;9.20;68.20;;;;;;2327255;57;21153;-75
2022/04/29 05:37:55;;;;;;;19.17;9.80;;;9.20;68.30;;;;;;2327242;57;21132;-76
2022/04/29 05:43:15;;;;;;;22.60;9.50;;;9.20;68.30;;;;;;2307557;57;21548;-75
2022/04/29 05:45:43;;;;;;;18.27;9.80;;;9.40;67.80;;;;;;2329189;57;21405;-75
2022/04/29 05:48:10;;;;;;;14.18;8.52;;;9.40;67.80;;;;;;2329749;57;21121;-75
2022/04/29 05:50:37;;;;;;;22.73;9.73;;;9.40;67.40;;;;;;2329428;57;21112;-74
2022/04/29 05:53:05;;;;;;;15.35;9.57;;;9.40;68.10;;;;;;2329655;57;21060;-75
2022/04/29 05:55:32;;;;;;;23.50;10.32;;;9.40;68.40;;;;;;2329081;57;21062;-75
2022/04/29 05:58:00;;;;;;;17.98;9.43;;;9.30;68.80;;;;;;2329427;57;21584;-74
2022/04/29 06:00:27;;;;;;;18.45;10.32;;;9.30;69.20;;;;;;2329643;57;21057;-74
2022/04/29 06:02:54;;;;;;;27.27;10.80;;;9.30;69.40;;;;;;2573291;54;21097;-74
2022/04/29 06:05:22;;;;;;;16.65;8.52;;;9.40;69.50;;;;;;2329633;57;21902;-74
2022/04/29 06:07:49;;;;;;;24.33;9.52;;;9.40;68.80;;;;;;2573392;54;21046;-75
2022/04/29 06:10:17;;;;;;;24.33;10.88;;;9.40;69.00;;;;;;2330075;57;21543;-73
2022/04/29 06:12:45;;;;;;;20.80;9.40;;;9.40;69.10;;;;;;2329710;57;21061;-74
2022/04/29 06:15:16;;;;;;;26.50;9.60;;;9.40;69.50;;;;;;2573505;53;21113;-73
2022/04/29 06:17:43;;;;;;;20.35;8.50;;;9.40;69.70;;;;;;2329948;57;21065;-75
2022/04/29 06:20:12;;;;;;;14.80;8.35;;;9.40;69.00;;;;;;2329786;57;21614;-74
2022/04/29 06:22:44;;;;;;;18.48;8.98;;;9.50;68.00;;;;;;2330268;57;21033;-74
2022/04/29 06:25:12;;;;;;;26.85;9.90;;;9.50;68.60;;;;;;2329853;57;21113;-73
2022/04/29 06:27:39;;;;;;;22.27;9.10;;;9.50;69.00;;;;;;2330243;57;21077;-74
2022/04/29 06:30:09;;;;;;;18.20;9.25;;;9.50;69.20;;;;;;2330168;57;21065;-75
2022/04/29 06:32:36;;;;;;;19.90;9.10;;;9.40;69.60;;;;;;2573253;54;21319;-76
2022/04/29 06:35:06;;;;;;;21.17;9.38;;;9.40;69.90;;;;;;2330017;57;21061;-74
2022/04/29 06:37:33;;;;;;;27.85;10.02;;;9.40;70.10;;;;;;2328679;57;21065;-75
2022/04/29 06:40:01;;;;;;;18.95;9.60;;;9.40;70.40;;;;;;2329898;57;21831;-77
2022/04/29 06:42:29;;;;;;;26.48;9.38;;;9.40;70.90;;;;;;2330252;57;21041;-73
2022/04/29 06:44:56;;;;;;;26.67;10.93;;;9.40;71.30;;;;;;2329994;57;21046;-74
2022/04/29 06:47:24;;;;;;;18.02;9.05;;;9.30;71.20;;;;;;2329824;57;21784;-74
2022/04/29 06:49:51;;;;;;;16.40;8.65;;;9.30;70.80;;;;;;2329923;57;21603;-74
2022/04/29 06:54:54;;;;;;;19.20;10.38;;;9.40;71.50;;;;;;2328409;57;22091;-74
2022/04/29 06:57:22;;;;;;;19.40;8.98;;;9.40;71.90;;;;;;2346651;57;21592;-75
2022/04/29 06:59:50;;;;;;;21.25;9.05;;;9.50;72.10;;;;;;2346529;57;21034;-74
2022/04/29 07:02:17;;;;;;;19.02;7.75;;;9.50;71.90;;;;;;2345812;57;21042;-75
2022/04/29 07:04:45;;;;;;;16.25;8.77;;;9.50;72.00;;;;;;2346150;57;21089;-77
2022/04/29 07:07:14;;;;;;;22.30;9.30;;;9.50;72.40;;;;;;2345634;57;21137;-78
2022/04/29 07:09:43;;;;;;;19.73;8.38;;;9.50;72.60;;;;;;2346327;57;21042;-76
2022/04/29 07:12:11;;;;;;;16.25;7.95;;;9.60;72.60;;;;;;2346375;57;21042;-76
2022/04/29 07:14:39;;;;;;;16.42;6.43;;;9.60;73.30;;;;;;2345767;57;21061;-75
2022/04/29 07:17:08;;;;;;;19.92;8.55;;;9.70;71.90;;;;;;2345842;57;21532;-76
2022/04/29 07:19:37;;;;;;;17.58;8.57;;;9.80;72.30;;;;;;2346011;57;21057;-77
2022/04/29 07:22:05;;;;;;;18.62;10.00;;;9.90;72.40;;;;;;2346229;57;21181;-76
2022/04/29 07:24:32;;;;;;;22.48;8.88;;;9.90;72.50;;;;;;2345854;57;21556;-77
2022/04/29 07:27:00;;;;;;;15.82;7.00;;;10.00;72.40;;;;;;2345580;57;21536;-75
2022/04/29 07:29:28;;;;;;;16.52;7.40;;;10.10;72.20;;;;;;2346288;57;21112;-76
2022/04/29 07:31:55;;;;;;;14.75;7.15;;;10.20;71.70;;;;;;2593270;53;21517;-75
2022/04/29 07:41:44;;;;;;;19.87;7.40;;;10.30;71.20;;;;;;2346206;57;21128;-78
2022/04/29 07:44:26;;;;;;;14.07;6.35;;;10.40;70.60;;;;;;2345961;57;21157;-75
2022/04/29 07:46:54;;;;;;;16.08;6.03;;;10.80;68.60;;;;;;2345965;57;21579;-75
2022/04/29 07:49:21;;;;;;;12.45;6.18;;;10.90;68.20;;;;;;2592765;53;21042;-77
2022/04/29 07:51:49;;;;;;;10.68;5.05;;;10.90;68.10;;;;;;2593495;52;21050;-75
2022/04/29 07:54:16;;;;;;;8.45;5.32;;;11.00;68.00;;;;;;2592916;53;21046;-76
2022/04/29 07:56:43;;;;;;;8.73;4.80;;;11.10;66.70;;;;;;2592943;53;21385;-75
2022/04/29 07:59:11;;;;;;;8.95;4.97;;;11.20;64.00;;;;;;2346317;57;21134;-75
2022/04/29 08:01:40;;;;;;;9.70;4.30;;;11.30;64.80;;;;;;2345977;57;21560;-78
2022/04/29 08:04:07;;;;;;;9.80;4.55;;;11.40;64.00;;;;;;2346402;57;21034;-75
2022/04/29 08:06:35;;;;;;;8.88;3.67;;;11.50;64.50;;;;;;2345010;57;21058;-76
2022/04/29 08:09:02;;;;;;;11.30;4.45;;;11.60;64.10;;;;;;2591350;53;21532;-76
2022/04/29 08:11:31;;;;;;;12.23;3.85;;;11.70;63.90;;;;;;2591595;53;21033;-75
2022/04/29 08:13:58;;;;;;;6.97;3.30;;;11.80;63.20;;;;;;2345492;57;21061;-76
2022/04/29 08:16:26;;;;;;;9.70;3.60;;;11.90;62.10;;;;;;2344704;57;21041;-74
2022/04/29 08:18:53;;;;;;;13.23;4.28;;;12.00;61.10;;;;;;2345306;57;21050;-75
2022/04/29 08:21:20;;;;;;;8.50;3.03;;;12.10;60.70;;;;;;2345198;57;21149;-74
2022/04/29 08:23:48;;;;;;;7.60;3.25;;;12.10;59.90;;;;;;2592173;53;21599;-75
2022/04/29 08:26:15;;;;;;;7.97;3.15;;;12.10;59.60;;;;;;2343833;57;21062;-75
2022/04/29 08:28:42;;;;;;;8.07;3.12;;;12.10;59.80;;;;;;2592078;53;21524;-74
2022/04/29 08:31:10;;;;;;;9.80;3.33;;;12.20;59.60;;;;;;2345175;57;21117;-77
2022/04/29 08:33:37;;;;;;;6.37;3.22;;;12.20;59.20;;;;;;2345011;57;21085;-75
2022/04/29 08:36:05;;;;;;;7.80;3.55;;;12.20;59.40;;;;;;2344452;57;21105;-75
2022/04/29 08:38:32;;;;;;;6.35;3.35;;;12.20;58.90;;;;;;2344904;57;21018;-74
2022/04/29 08:41:03;;;;;;;5.68;3.00;;;12.20;58.90;;;;;;2345142;57;21516;-73
2022/04/29 08:43:32;;;;;;;6.53;3.40;;;12.20;58.90;;;;;;2345416;57;21090;-74
2022/04/29 08:46:00;;;;;;;8.68;3.62;;;12.20;58.50;;;;;;2344785;57;21042;-74
2022/04/29 08:48:29;;;;;;;9.18;4.00;;;12.20;58.50;;;;;;2345170;57;21121;-74
2022/04/29 08:51:04;;;;;;;7.87;3.67;;;12.10;59.00;;;;;;2345121;57;21623;-74
2022/04/29 08:53:34;;;;;;;9.38;3.87;;;12.10;59.30;;;;;;2343262;57;21113;-75
2022/04/29 08:58:48;;;;;;;8.43;3.67;;;12.10;59.30;;;;;;2345177;57;20987;-74
2022/04/29 09:01:16;;;;;;;6.40;3.20;;;12.10;59.60;;;;;;2344935;57;21185;-74
2022/04/29 09:03:44;;;;;;;10.50;5.15;;;12.20;59.00;;;;;;2345134;57;21046;-74
2022/04/29 09:06:12;;;;;;;8.13;4.12;;;12.20;58.90;;;;;;2344471;57;21101;-75
2022/04/29 09:08:41;;;;;;;8.82;3.50;;;12.20;59.00;;;;;;2345139;57;21113;-75
2022/04/29 09:11:09;;;;;;;8.48;3.55;;;12.20;58.90;;;;;;2344985;57;21030;-74
2022/04/29 09:13:38;;;;;;;5.65;3.47;;;12.20;58.90;;;;;;2344945;57;21086;-76
2022/04/29 09:16:10;;;;;;;5.47;3.10;;;12.20;58.50;;;;;;2344863;57;21145;-74
2022/04/29 09:18:39;;;;;;;3.97;2.58;;;12.30;58.10;;;;;;2345290;57;21046;-74
2022/04/29 09:21:08;;;;;;;10.45;3.15;;;12.30;57.90;;;;;;2345162;57;21421;-74
2022/04/29 09:23:37;;;;;;;6.32;2.80;;;12.30;57.60;;;;;;2345212;57;21041;-75
2022/04/29 09:26:06;;;;;;;8.32;2.80;;;12.40;57.10;;;;;;2344314;57;21026;-74
2022/04/29 09:28:34;;;;;;;4.32;2.60;;;12.40;56.50;;;;;;2345402;57;21113;-75
2022/04/29 09:31:02;;;;;;;5.20;3.00;;;12.50;56.40;;;;;;2345253;57;21046;-76
2022/04/29 09:33:35;;;;;;;4.50;2.55;;;12.50;56.30;;;;;;2345496;57;21200;-76
2022/04/29 09:36:02;;;;;;;5.57;3.47;;;12.60;55.40;;;;;;2345042;57;21584;-75
2022/04/29 09:41:22;;;;;;;8.68;3.15;;;12.70;55.50;;;;;;2345037;57;20998;-74
2022/04/29 09:43:50;;;;;;;9.43;3.25;;;12.70;55.40;;;;;;2345358;57;21097;-74
2022/04/29 09:46:19;;;;;;;10.93;3.30;;;12.70;55.00;;;;;;2345182;57;21113;-74
2022/04/29 09:49:03;;;;;;;10.85;3.08;;;12.80;55.20;;;;;;2345218;57;21037;-75
2022/04/29 09:51:47;;;;;;;4.25;2.40;;;12.80;54.50;;;;;;2345442;57;21599;-75
2022/04/29 09:54:17;;;;;;;4.40;2.80;;;12.90;54.30;;;;;;2344369;57;21026;-74
2022/04/29 09:56:46;;;;;;;4.72;3.45;;;12.90;54.00;;;;;;2344807;57;21093;-74
2022/04/29 09:59:13;;;;;;;7.05;3.33;;;13.00;54.00;;;;;;2345454;57;21026;-74
2022/04/29 10:01:42;;;;;;;7.60;2.42;;;13.00;54.00;;;;;;2591992;52;21105;-74
2022/04/29 10:04:11;;;;;;;3.08;2.25;;;13.20;53.10;;;;;;2345467;57;21114;-75
2022/04/29 10:06:41;;;;;;;7.93;2.40;;;13.20;52.90;;;;;;2591711;53;21073;-74
2022/04/29 10:09:11;;;;;;;4.72;2.15;;;13.20;52.90;;;;;;2345443;57;21660;-75
2022/04/29 10:11:42;;;;;;;3.42;2.17;;;13.30;52.10;;;;;;2344656;57;21046;-75
2022/04/29 10:14:16;;;;;;;4.25;2.75;;;13.40;52.30;;;;;;2344812;57;21094;-74
2022/04/29 10:21:15;;;;;;;5.25;2.50;;;13.50;52.10;;;;;;2344724;57;21038;-75
2022/04/29 10:23:59;;;;;;;17.98;3.78;;;13.60;51.90;;;;;;2345200;57;21042;-75
2022/04/29 10:26:26;;;;;;;4.40;2.60;;;13.90;51.60;;;;;;2344567;57;21105;-75
2022/04/29 10:28:54;;;;;;;4.07;2.37;;;13.90;50.30;;;;;;2345332;57;21121;-74
2022/04/29 10:31:23;;;;;;;6.50;2.60;;;13.90;50.20;;;;;;2344873;57;21536;-75
2022/04/29 10:33:50;;;;;;;4.90;2.53;;;13.90;50.60;;;;;;2345110;57;21133;-75
2022/04/29 10:36:24;;;;;;;7.07;2.22;;;14.00;50.90;;;;;;2344791;57;21572;-76
2022/04/29 10:39:00;;;;;;;4.75;2.65;;;14.10;51.20;;;;;;2344796;57;21046;-75
2022/04/29 10:41:28;;;;;;;7.15;2.92;;;14.20;51.00;;;;;;2345126;57;21046;-77
2022/04/29 10:44:05;;;;;;;6.18;3.20;;;14.20;51.00;;;;;;2345019;57;21038;-76
2022/04/29 10:46:33;;;;;;;6.22;3.37;;;14.30;50.80;;;;;;2344640;57;21050;-76
2022/04/29 10:49:23;;;;;;;5.40;3.20;;;14.30;50.70;;;;;;2344824;57;21046;-74
2022/04/29 10:51:52;;;;;;;7.45;3.70;;;14.40;50.50;;;;;;2345131;57;21148;-75
2022/04/29 10:54:44;;;;;;;4.90;3.25;;;14.50;49.80;;;;;;2592007;52;21074;-74
2022/04/29 10:57:14;;;;;;;4.35;3.28;;;14.60;50.40;;;;;;2344566;57;21058;-74
2022/04/29 10:59:57;;;;;;;4.07;3.00;;;14.70;50.20;;;;;;2345366;57;21115;-75
2022/04/29 11:02:26;;;;;;;11.23;3.42;;;14.70;50.80;;;;;;2345146;57;21050;-75
2022/04/29 11:04:55;;;;;;;7.55;3.17;;;14.80;51.00;;;;;;2344729;57;21193;-75
2022/04/29 11:08:04;;;;;;;6.25;3.33;;;14.80;50.60;;;;;;2344578;57;21049;-77
2022/04/29 11:10:53;;;;;;;4.12;2.65;;;14.90;50.30;;;;;;2344975;57;21058;-75
2022/04/29 11:13:23;;;;;;;4.00;2.78;;;15.00;50.50;;;;;;2344788;57;21050;-74
2022/04/29 11:15:51;;;;;;;5.00;3.10;;;15.00;49.90;;;;;;2344500;57;21046;-75
2022/04/29 11:18:22;;;;;;;4.80;2.55;;;15.10;49.40;;;;;;2344994;57;21560;-76
2022/04/29 11:20:56;;;;;;;3.83;3.05;;;15.20;48.90;;;;;;2591953;53;21130;-74
2022/04/29 11:26:15;;;;;;;7.28;3.10;;;15.20;48.40;;;;;;2344415;57;21002;-75
2022/04/29 11:31:18;;;;;;;4.18;2.65;;;15.40;49.30;;;;;;2355835;57;22121;-74
2022/04/29 11:33:45;;;;;;;6.22;3.60;;;15.60;49.40;;;;;;2346795;57;21077;-75
2022/04/29 11:36:13;;;;;;;9.73;3.35;;;15.70;48.70;;;;;;2601210;52;21098;-74
2022/04/29 11:38:43;;;;;;;4.37;3.17;;;15.70;48.10;;;;;;2375139;56;21074;-74
2022/04/29 11:41:17;;;;;;;7.40;2.72;;;15.90;48.30;;;;;;2375215;56;21051;-73
2022/04/29 11:43:46;;;;;;;6.60;3.08;;;16.00;47.30;;;;;;2374911;56;21047;-75
2022/04/29 11:46:13;;;;;;;5.78;2.87;;;16.00;47.10;;;;;;2374690;56;21540;-74
2022/04/29 11:48:51;;;;;;;6.37;3.22;;;16.10;48.00;;;;;;2374203;56;21047;-74
2022/04/29 11:51:18;;;;;;;6.03;2.50;;;16.20;47.70;;;;;;2375352;56;21114;-75
2022/04/29 11:54:00;;;;;;;7.20;3.25;;;16.30;47.90;;;;;;2375385;56;21114;-74
2022/04/29 11:56:37;;;;;;;6.87;3.85;;;16.40;48.00;;;;;;2374830;56;21055;-74
2022/04/29 11:59:06;;;;;;;4.95;2.75;;;16.40;47.20;;;;;;2628989;52;21078;-75
2022/04/29 12:01:34;;;;;;;8.38;3.25;;;16.50;47.70;;;;;;2374000;56;21113;-74
2022/04/29 12:04:02;;;;;;;3.85;2.00;;;16.60;47.80;;;;;;2375005;56;21047;-75
2022/04/29 12:06:29;;;;;;;7.03;3.15;;;16.70;46.80;;;;;;2374690;56;21134;-76
2022/04/29 12:08:57;;;;;;;7.80;2.85;;;16.80;45.00;;;;;;2375070;56;21545;-74
2022/04/29 12:11:26;;;;;;;3.33;2.45;;;16.90;44.40;;;;;;2374945;56;21070;-74
2022/04/29 12:13:54;;;;;;;4.25;2.40;;;16.90;44.70;;;;;;2628329;52;21078;-74
2022/04/29 12:16:22;;;;;;;5.82;2.95;;;16.90;44.80;;;;;;2374700;56;21055;-74
2022/04/29 12:18:50;;;;;;;6.87;3.25;;;16.90;44.70;;;;;;2374645;56;21055;-74
2022/04/29 12:21:25;;;;;;;5.97;2.90;;;16.90;44.70;;;;;;2374749;56;21593;-74
2022/04/29 12:23:52;;;;;;;10.02;3.03;;;16.90;45.00;;;;;;2375133;56;21105;-75
2022/04/29 12:26:20;;;;;;;4.47;2.20;;;16.90;44.40;;;;;;2374548;56;21138;-74
2022/04/29 12:28:54;;;;;;;4.55;2.60;;;17.00;42.80;;;;;;2628909;52;21130;-77
2022/04/29 12:36:57;;;;;;;2.58;2.10;;;17.10;42.20;;;;;;2374853;56;21020;-73
2022/04/29 12:39:26;;;;;;;4.47;2.40;;;17.10;42.30;;;;;;2628961;52;21098;-75
2022/04/29 12:42:01;;;;;;;5.12;2.55;;;17.20;43.40;;;;;;2374597;56;21297;-77
2022/04/29 12:47:33;;;;;;;3.05;2.30;;;17.30;43.90;;;;;;2373798;56;21022;-74
2022/04/29 12:50:26;;;;;;;4.05;2.42;;;17.40;43.60;;;;;;2374017;56;21122;-74
2022/04/29 12:52:57;;;;;;;5.55;2.65;;;17.40;43.00;;;;;;2374421;56;21086;-74
2022/04/29 12:55:24;;;;;;;8.40;3.25;;;17.40;43.00;;;;;;2373518;56;21130;-76
2022/04/29 12:57:51;;;;;;;3.10;2.60;;;17.40;43.30;;;;;;2374382;56;21589;-74
2022/04/29 13:00:27;;;;;;;4.80;2.42;;;17.40;43.50;;;;;;2373502;56;21110;-75
2022/04/29 13:03:03;;;;;;;7.25;3.30;;;17.40;43.20;;;;;;2373862;56;21561;-77
2022/04/29 13:05:31;;;;;;;5.12;2.35;;;17.40;42.10;;;;;;2373640;56;21043;-74
2022/04/29 13:07:59;;;;;;;4.05;2.80;;;17.40;42.10;;;;;;2627627;52;21058;-74
2022/04/29 13:10:26;;;;;;;6.07;2.45;;;17.30;41.90;;;;;;2373588;56;21118;-74
2022/04/29 13:12:54;;;;;;;7.32;3.53;;;17.30;42.20;;;;;;2627658;52;21035;-74
2022/04/29 13:15:22;;;;;;;5.07;2.72;;;17.30;42.40;;;;;;2373832;56;21130;-74
2022/04/29 13:17:49;;;;;;;4.03;2.42;;;17.20;42.50;;;;;;2374142;56;21117;-76
2022/04/29 13:20:17;;;;;;;7.43;3.08;;;17.30;43.00;;;;;;2627405;52;21059;-74
2022/04/29 13:22:45;;;;;;;8.07;2.95;;;17.30;42.90;;;;;;2374248;56;21043;-75
2022/04/29 13:25:12;;;;;;;7.97;2.70;;;17.40;43.30;;;;;;2373879;56;21047;-75
2022/04/29 13:27:39;;;;;;;4.78;2.65;;;17.40;43.20;;;;;;2373711;56;21047;-74
2022/04/29 13:30:09;;;;;;;3.55;2.80;;;17.40;43.20;;;;;;2373815;56;21114;-74
2022/04/29 13:32:36;;;;;;;7.32;2.92;;;17.40;42.80;;;;;;2627601;52;21036;-75
2022/04/29 13:35:06;;;;;;;6.35;2.60;;;17.40;42.90;;;;;;2374043;56;21638;-74
2022/04/29 13:37:36;;;;;;;8.18;2.72;;;17.40;42.40;;;;;;2627073;52;21092;-74